Terminal Aerodrome Forecast
Issued by NWS

Home | Current Version | Previous Version | Text Only | Print | Product List | Glossary On
Versions: 1 2 3 4 5 6 7 8 9 10 11 12 13 14 15 16 17 18 19 20 21 22 23 24 25 26 27
587
FTUS46 KPDT 071720
TAFRDM
TAF
KRDM 071720Z 0718/0818 VRB05KT P6SM FEW250
     FM072000 33007KT P6SM SCT250
     FM080300 VRB04KT P6SM SCT120 OVC200
     FM081000 VRB04KT 3SM -SHSN BR SCT020 OVC030
     FM081300 VRB05KT 1SM -SN BR BKN010 OVC020=

USA.gov is the U.S. government's official web portal to all federal, state and local government web resources and services.